PWSweather.com
Personal Weather Stations
Station Observations
KC4KQE
Superstition Mountains, Apache Junction, AZ 85119

Superstition MountainsApache Junction, AZ 85119

Lat: 33.41578, Lon: -111.49328

Elevation: 1850

Station Type: Davis Vantage Pro2 Plus

http://kc4kqe.org/

High Low Average
Temperature 104.0°F40.0°C 68.7°F20.4°C 89.4°F31.9°C
Dew Point 39.3°F4.1°C 21.3°F-5.9°C 30.6°F-0.8°C
Winds 9.0 mph 14.5 kmh Calm Calm 2.0 mph S3.2 kmh S
Wind Gusts 20.0 mph32.2 kmh -- 5.0 mph8.0 kmh
Humidity 30% 6% 14%
Pressure 29.99 in1015.6 mb 29.86 in1011.2 mb -
Precipitation 0.00 in0.0 mm - -
Hour Temp Dew Point Humidity Winds Wind Gusts Pressure Precip Precip Rate Daily Precip Total
12:00 AM 82.7°F28.2°C 33.4°F0.8°C 17% 2.0 mph NNE3.2 kmh NNE 4.0 mph6.4 kmh 29.92 in1013.2 mb 0.00 in0.0 mm 0.00 in0.0 mm 0.00 in0.0 mm
12:05 AM 82.3°F27.9°C 33.1°F0.6°C 17% 2.0 mph N3.2 kmh N 6.0 mph9.7 kmh 29.92 in1013.2 mb 0.00 in0.0 mm 0.00 in0.0 mm 0.00 in0.0 mm
12:10 AM 82.0°F27.8°C 32.8°F0.4°C 17% 1.0 mph N1.6 kmh N 4.0 mph6.4 kmh 29.92 in1013.2 mb 0.00 in0.0 mm 0.00 in0.0 mm 0.00 in0.0 mm
12:15 AM 81.8°F27.7°C 32.7°F0.4°C 17% 2.0 mph N3.2 kmh N 4.0 mph6.4 kmh 29.92 in1013.2 mb 0.00 in0.0 mm 0.00 in0.0 mm 0.00 in0.0 mm
12:20 AM 81.7°F27.6°C 32.6°F0.3°C 17% 2.0 mph NNE3.2 kmh NNE 5.0 mph8.0 kmh 29.92 in1013.2 mb 0.00 in0.0 mm 0.00 in0.0 mm 0.00 in0.0 mm
12:25 AM 81.6°F27.6°C 32.5°F0.3°C 17% 1.0 mph NNE1.6 kmh NNE 4.0 mph6.4 kmh 29.92 in1013.2 mb 0.00 in0.0 mm 0.00 in0.0 mm 0.00 in0.0 mm
12:30 AM 81.5°F27.5°C 32.4°F0.2°C 17% 2.0 mph NNE3.2 kmh NNE 3.0 mph4.8 kmh 29.92 in1013.2 mb 0.00 in0.0 mm 0.00 in0.0 mm 0.00 in0.0 mm
12:35 AM 81.4°F27.4°C 32.3°F0.2°C 17% 1.0 mph NE1.6 kmh NE 4.0 mph6.4 kmh 29.92 in1013.2 mb 0.00 in0.0 mm 0.00 in0.0 mm 0.00 in0.0 mm
12:40 AM 81.3°F27.4°C 32.3°F0.2°C 17% 1.0 mph NE1.6 kmh NE 3.0 mph4.8 kmh 29.93 in1013.5 mb 0.00 in0.0 mm 0.00 in0.0 mm 0.00 in0.0 mm
12:45 AM 81.2°F27.3°C 32.2°F0.1°C 17% 1.0 mph NE1.6 kmh NE 3.0 mph4.8 kmh 29.92 in1013.2 mb 0.00 in0.0 mm 0.00 in0.0 mm 0.00 in0.0 mm
12:50 AM 81.2°F27.3°C 32.2°F0.1°C 17% 1.0 mph NE1.6 kmh NE 3.0 mph4.8 kmh 29.93 in1013.5 mb 0.00 in0.0 mm 0.00 in0.0 mm 0.00 in0.0 mm
12:55 AM 81.0°F27.2°C 32.0°F0.0°C 17% Calm Calm 2.0 mph3.2 kmh 29.93 in1013.5 mb 0.00 in0.0 mm 0.00 in0.0 mm 0.00 in0.0 mm
01:00 AM 80.8°F27.1°C 31.9°F-0.1°C 17% 1.0 mph NE1.6 kmh NE 2.0 mph3.2 kmh 29.93 in1013.5 mb 0.00 in0.0 mm 0.00 in0.0 mm 0.00 in0.0 mm
01:05 AM 80.7°F27.1°C 31.8°F-0.1°C 17% 2.0 mph NE3.2 kmh NE 2.0 mph3.2 kmh 29.93 in1013.5 mb 0.00 in0.0 mm 0.00 in0.0 mm 0.00 in0.0 mm
01:10 AM 80.4°F26.9°C 31.5°F-0.3°C 17% Calm Calm 2.0 mph3.2 kmh 29.93 in1013.5 mb 0.00 in0.0 mm 0.00 in0.0 mm 0.00 in0.0 mm
01:15 AM 80.2°F26.8°C 32.8°F0.4°C 18% Calm Calm 1.0 mph1.6 kmh 29.93 in1013.5 mb 0.00 in0.0 mm 0.00 in0.0 mm 0.00 in0.0 mm
01:20 AM 79.9°F26.6°C 32.5°F0.3°C 18% Calm Calm -- 29.93 in1013.5 mb 0.00 in0.0 mm 0.00 in0.0 mm 0.00 in0.0 mm
01:25 AM 79.7°F26.5°C 32.4°F0.2°C 18% 1.0 mph NE1.6 kmh NE 2.0 mph3.2 kmh 29.93 in1013.5 mb 0.00 in0.0 mm 0.00 in0.0 mm 0.00 in0.0 mm
01:30 AM 79.4°F26.3°C 32.1°F0.1°C 18% Calm Calm 3.0 mph4.8 kmh 29.93 in1013.5 mb 0.00 in0.0 mm 0.00 in0.0 mm 0.00 in0.0 mm
01:35 AM 79.1°F26.2°C 31.9°F-0.1°C 18% Calm Calm 2.0 mph3.2 kmh 29.93 in1013.5 mb 0.00 in0.0 mm 0.00 in0.0 mm 0.00 in0.0 mm
01:40 AM 78.8°F26.0°C 33.0°F0.6°C 19% Calm Calm -- 29.93 in1013.5 mb 0.00 in0.0 mm 0.00 in0.0 mm 0.00 in0.0 mm
01:45 AM 78.5°F25.8°C 32.7°F0.4°C 19% Calm Calm -- 29.93 in1013.5 mb 0.00 in0.0 mm 0.00 in0.0 mm 0.00 in0.0 mm
01:50 AM 78.1°F25.6°C 33.7°F0.9°C 20% Calm Calm -- 29.93 in1013.5 mb 0.00 in0.0 mm 0.00 in0.0 mm 0.00 in0.0 mm
01:55 AM 77.9°F25.5°C 33.5°F0.8°C 20% Calm Calm -- 29.93 in1013.5 mb 0.00 in0.0 mm 0.00 in0.0 mm 0.00 in0.0 mm
02:00 AM 77.6°F25.3°C 33.3°F0.7°C 20% Calm Calm -- 29.93 in1013.5 mb 0.00 in0.0 mm 0.00 in0.0 mm 0.00 in0.0 mm
02:05 AM 77.3°F25.2°C 33.0°F0.6°C 20% Calm Calm 2.0 mph3.2 kmh 29.93 in1013.5 mb 0.00 in0.0 mm 0.00 in0.0 mm 0.00 in0.0 mm
02:10 AM 77.1°F25.1°C 34.1°F1.2°C 21% Calm Calm -- 29.93 in1013.5 mb 0.00 in0.0 mm 0.00 in0.0 mm 0.00 in0.0 mm
02:15 AM 76.9°F24.9°C 33.9°F1.1°C 21% Calm Calm -- 29.93 in1013.5 mb 0.00 in0.0 mm 0.00 in0.0 mm 0.00 in0.0 mm
02:20 AM 76.7°F24.8°C 33.8°F1.0°C 21% Calm Calm -- 29.93 in1013.5 mb 0.00 in0.0 mm 0.00 in0.0 mm 0.00 in0.0 mm
02:25 AM 76.4°F24.7°C 34.7°F1.5°C 22% Calm Calm -- 29.93 in1013.5 mb 0.00 in0.0 mm 0.00 in0.0 mm 0.00 in0.0 mm
02:30 AM 76.3°F24.6°C 34.6°F1.4°C 22% Calm Calm -- 29.93 in1013.5 mb 0.00 in0.0 mm 0.00 in0.0 mm 0.00 in0.0 mm
02:35 AM 76.0°F24.4°C 34.3°F1.3°C 22% Calm Calm -- 29.93 in1013.5 mb 0.00 in0.0 mm 0.00 in0.0 mm 0.00 in0.0 mm
02:40 AM 75.8°F24.3°C 34.2°F1.2°C 22% Calm Calm -- 29.94 in1013.9 mb 0.00 in0.0 mm 0.00 in0.0 mm 0.00 in0.0 mm
02:45 AM 75.5°F24.2°C 35.0°F1.7°C 23% Calm Calm -- 29.94 in1013.9 mb 0.00 in0.0 mm 0.00 in0.0 mm 0.00 in0.0 mm
02:50 AM 75.2°F24.0°C 34.8°F1.6°C 23% Calm Calm -- 29.93 in1013.5 mb 0.00 in0.0 mm 0.00 in0.0 mm 0.00 in0.0 mm
02:55 AM 74.9°F23.8°C 34.5°F1.4°C 23% Calm Calm -- 29.94 in1013.9 mb 0.00 in0.0 mm 0.00 in0.0 mm 0.00 in0.0 mm
03:00 AM 74.7°F23.7°C 34.4°F1.3°C 23% Calm Calm -- 29.93 in1013.5 mb 0.00 in0.0 mm 0.00 in0.0 mm 0.00 in0.0 mm
03:05 AM 74.4°F23.6°C 34.1°F1.2°C 23% 1.0 mph SSW1.6 kmh SSW 5.0 mph8.0 kmh 29.94 in1013.9 mb 0.00 in0.0 mm 0.00 in0.0 mm 0.00 in0.0 mm
03:10 AM 74.2°F23.4°C 34.0°F1.1°C 23% Calm Calm 2.0 mph3.2 kmh 29.94 in1013.9 mb 0.00 in0.0 mm 0.00 in0.0 mm 0.00 in0.0 mm
03:15 AM 74.1°F23.4°C 33.9°F1.1°C 23% Calm Calm -- 29.94 in1013.9 mb 0.00 in0.0 mm 0.00 in0.0 mm 0.00 in0.0 mm
03:20 AM 73.8°F23.2°C 33.6°F0.9°C 23% Calm Calm 1.0 mph1.6 kmh 29.94 in1013.9 mb 0.00 in0.0 mm 0.00 in0.0 mm 0.00 in0.0 mm
03:25 AM 73.6°F23.1°C 33.5°F0.8°C 23% Calm Calm 3.0 mph4.8 kmh 29.94 in1013.9 mb 0.00 in0.0 mm 0.00 in0.0 mm 0.00 in0.0 mm
03:30 AM 73.5°F23.1°C 34.4°F1.3°C 24% Calm Calm -- 29.94 in1013.9 mb 0.00 in0.0 mm 0.00 in0.0 mm 0.00 in0.0 mm
03:35 AM 73.2°F22.9°C 33.1°F0.6°C 23% Calm Calm 1.0 mph1.6 kmh 29.94 in1013.9 mb 0.00 in0.0 mm 0.00 in0.0 mm 0.00 in0.0 mm
03:40 AM 73.1°F22.8°C 33.0°F0.6°C 23% Calm Calm 1.0 mph1.6 kmh 29.94 in1013.9 mb 0.00 in0.0 mm 0.00 in0.0 mm 0.00 in0.0 mm
03:45 AM 72.9°F22.7°C 32.9°F0.5°C 23% Calm Calm -- 29.94 in1013.9 mb 0.00 in0.0 mm 0.00 in0.0 mm 0.00 in0.0 mm
03:50 AM 72.6°F22.6°C 33.7°F0.9°C 24% Calm Calm -- 29.94 in1013.9 mb 0.00 in0.0 mm 0.00 in0.0 mm 0.00 in0.0 mm
03:55 AM 72.4°F22.4°C 33.5°F0.8°C 24% Calm Calm -- 29.94 in1013.9 mb 0.00 in0.0 mm 0.00 in0.0 mm 0.00 in0.0 mm
04:00 AM 72.2°F22.3°C 33.3°F0.7°C 24% Calm Calm -- 29.94 in1013.9 mb 0.00 in0.0 mm 0.00 in0.0 mm 0.00 in0.0 mm
04:05 AM 72.1°F22.3°C 33.3°F0.7°C 24% Calm Calm -- 29.94 in1013.9 mb 0.00 in0.0 mm 0.00 in0.0 mm 0.00 in0.0 mm
04:10 AM 71.9°F22.2°C 33.1°F0.6°C 24% Calm Calm -- 29.94 in1013.9 mb 0.00 in0.0 mm 0.00 in0.0 mm 0.00 in0.0 mm
04:15 AM 71.7°F22.1°C 32.9°F0.5°C 24% Calm Calm -- 29.94 in1013.9 mb 0.00 in0.0 mm 0.00 in0.0 mm 0.00 in0.0 mm
04:20 AM 71.5°F21.9°C 32.8°F0.4°C 24% Calm Calm -- 29.94 in1013.9 mb 0.00 in0.0 mm 0.00 in0.0 mm 0.00 in0.0 mm
04:25 AM 71.2°F21.8°C 32.5°F0.3°C 24% Calm Calm -- 29.95 in1014.2 mb 0.00 in0.0 mm 0.00 in0.0 mm 0.00 in0.0 mm
04:30 AM 70.9°F21.6°C 33.3°F0.7°C 25% Calm Calm -- 29.95 in1014.2 mb 0.00 in0.0 mm 0.00 in0.0 mm 0.00 in0.0 mm
04:35 AM 70.6°F21.4°C 33.0°F0.6°C 25% Calm Calm -- 29.95 in1014.2 mb 0.00 in0.0 mm 0.00 in0.0 mm 0.00 in0.0 mm
04:40 AM 70.4°F21.3°C 32.8°F0.4°C 25% Calm Calm -- 29.95 in1014.2 mb 0.00 in0.0 mm 0.00 in0.0 mm 0.00 in0.0 mm
04:45 AM 70.2°F21.2°C 32.7°F0.4°C 25% Calm Calm -- 29.95 in1014.2 mb 0.00 in0.0 mm 0.00 in0.0 mm 0.00 in0.0 mm
04:50 AM 70.0°F21.1°C 32.5°F0.3°C 25% Calm Calm -- 29.95 in1014.2 mb 0.00 in0.0 mm 0.00 in0.0 mm 0.00 in0.0 mm
04:55 AM 69.8°F21.0°C 32.3°F0.2°C 25% Calm Calm -- 29.95 in1014.2 mb 0.00 in0.0 mm 0.00 in0.0 mm 0.00 in0.0 mm
05:00 AM 69.6°F20.9°C 32.2°F0.1°C 25% Calm Calm -- 29.96 in1014.6 mb 0.00 in0.0 mm 0.00 in0.0 mm 0.00 in0.0 mm
05:05 AM 69.4°F20.8°C 33.0°F0.6°C 26% Calm Calm -- 29.96 in1014.6 mb 0.00 in0.0 mm 0.00 in0.0 mm 0.00 in0.0 mm
05:10 AM 69.2°F20.7°C 32.8°F0.4°C 26% Calm Calm -- 29.96 in1014.6 mb 0.00 in0.0 mm 0.00 in0.0 mm 0.00 in0.0 mm
05:15 AM 69.1°F20.6°C 32.7°F0.4°C 26% Calm Calm -- 29.96 in1014.6 mb 0.00 in0.0 mm 0.00 in0.0 mm 0.00 in0.0 mm
05:20 AM 68.9°F20.5°C 32.5°F0.3°C 26% Calm Calm -- 29.96 in1014.6 mb 0.00 in0.0 mm 0.00 in0.0 mm 0.00 in0.0 mm
05:25 AM 68.9°F20.5°C 33.5°F0.8°C 27% Calm Calm -- 29.96 in1014.6 mb 0.00 in0.0 mm 0.00 in0.0 mm 0.00 in0.0 mm
05:30 AM 68.8°F20.4°C 33.4°F0.8°C 27% Calm Calm -- 29.96 in1014.6 mb 0.00 in0.0 mm 0.00 in0.0 mm 0.00 in0.0 mm
05:35 AM 68.7°F20.4°C 33.3°F0.7°C 27% Calm Calm -- 29.96 in1014.6 mb 0.00 in0.0 mm 0.00 in0.0 mm 0.00 in0.0 mm
05:40 AM 68.7°F20.4°C 33.3°F0.7°C 27% Calm Calm -- 29.97 in1014.9 mb 0.00 in0.0 mm 0.00 in0.0 mm 0.00 in0.0 mm
05:45 AM 68.7°F20.4°C 34.2°F1.2°C 28% 1.0 mph S1.6 kmh S 2.0 mph3.2 kmh 29.97 in1014.9 mb 0.00 in0.0 mm 0.00 in0.0 mm 0.00 in0.0 mm
05:50 AM 68.7°F20.4°C 34.2°F1.2°C 28% 1.0 mph S1.6 kmh S 2.0 mph3.2 kmh 29.97 in1014.9 mb 0.00 in0.0 mm 0.00 in0.0 mm 0.00 in0.0 mm
05:55 AM 68.8°F20.4°C 34.3°F1.3°C 28% 2.0 mph S3.2 kmh S 3.0 mph4.8 kmh 29.97 in1014.9 mb 0.00 in0.0 mm 0.00 in0.0 mm 0.00 in0.0 mm
06:00 AM 69.0°F20.6°C 34.5°F1.4°C 28% 1.0 mph S1.6 kmh S 3.0 mph4.8 kmh 29.97 in1014.9 mb 0.00 in0.0 mm 0.00 in0.0 mm 0.00 in0.0 mm
06:05 AM 69.5°F20.8°C 34.9°F1.6°C 28% 1.0 mph SSE1.6 kmh SSE 3.0 mph4.8 kmh 29.97 in1014.9 mb 0.00 in0.0 mm 0.00 in0.0 mm 0.00 in0.0 mm
06:10 AM 69.9°F21.1°C 36.1°F2.3°C 29% Calm Calm 2.0 mph3.2 kmh 29.97 in1014.9 mb 0.00 in0.0 mm 0.00 in0.0 mm 0.00 in0.0 mm
06:15 AM 70.3°F21.3°C 36.5°F2.5°C 29% Calm Calm -- 29.97 in1014.9 mb 0.00 in0.0 mm 0.00 in0.0 mm 0.00 in0.0 mm
06:20 AM 70.9°F21.6°C 37.9°F3.3°C 30% Calm Calm -- 29.97 in1014.9 mb 0.00 in0.0 mm 0.00 in0.0 mm 0.00 in0.0 mm
06:25 AM 71.5°F21.9°C 38.4°F3.6°C 30% Calm Calm -- 29.97 in1014.9 mb 0.00 in0.0 mm 0.00 in0.0 mm 0.00 in0.0 mm
06:30 AM 71.9°F22.2°C 38.7°F3.7°C 30% Calm Calm -- 29.97 in1014.9 mb 0.00 in0.0 mm 0.00 in0.0 mm 0.00 in0.0 mm
06:35 AM 73.2°F22.9°C 38.1°F3.4°C 28% 2.0 mph SSE3.2 kmh SSE 2.0 mph3.2 kmh 29.97 in1014.9 mb 0.00 in0.0 mm 0.00 in0.0 mm 0.00 in0.0 mm
06:40 AM 74.2°F23.4°C 38.0°F3.3°C 27% Calm Calm 2.0 mph3.2 kmh 29.97 in1014.9 mb 0.00 in0.0 mm 0.00 in0.0 mm 0.00 in0.0 mm
06:45 AM 75.1°F23.9°C 38.8°F3.8°C 27% Calm Calm 2.0 mph3.2 kmh 29.98 in1015.2 mb 0.00 in0.0 mm 0.00 in0.0 mm 0.00 in0.0 mm
06:50 AM 76.0°F24.4°C 38.6°F3.7°C 26% Calm Calm -- 29.98 in1015.2 mb 0.00 in0.0 mm 0.00 in0.0 mm 0.00 in0.0 mm
06:55 AM 76.9°F24.9°C 38.3°F3.5°C 25% Calm Calm -- 29.98 in1015.2 mb 0.00 in0.0 mm 0.00 in0.0 mm 0.00 in0.0 mm
07:00 AM 78.1°F25.6°C 39.3°F4.1°C 25% Calm Calm 1.0 mph1.6 kmh 29.98 in1015.2 mb 0.00 in0.0 mm 0.00 in0.0 mm 0.00 in0.0 mm
07:05 AM 79.2°F26.2°C 39.2°F4.0°C 24% Calm Calm 1.0 mph1.6 kmh 29.98 in1015.2 mb 0.00 in0.0 mm 0.00 in0.0 mm 0.00 in0.0 mm
07:10 AM 80.4°F26.9°C 38.0°F3.3°C 22% 1.0 mph SSE1.6 kmh SSE 2.0 mph3.2 kmh 29.98 in1015.2 mb 0.00 in0.0 mm 0.00 in0.0 mm 0.00 in0.0 mm
07:15 AM 81.6°F27.6°C 36.6°F2.6°C 20% 2.0 mph SSE3.2 kmh SSE 2.0 mph3.2 kmh 29.98 in1015.2 mb 0.00 in0.0 mm 0.00 in0.0 mm 0.00 in0.0 mm
07:20 AM 82.6°F28.1°C 36.1°F2.3°C 19% Calm Calm 2.0 mph3.2 kmh 29.98 in1015.2 mb 0.00 in0.0 mm 0.00 in0.0 mm 0.00 in0.0 mm
07:25 AM 83.3°F28.5°C 36.7°F2.6°C 19% Calm Calm -- 29.99 in1015.6 mb 0.00 in0.0 mm 0.00 in0.0 mm 0.00 in0.0 mm
07:30 AM 84.0°F28.9°C 37.2°F2.9°C 19% Calm Calm -- 29.99 in1015.6 mb 0.00 in0.0 mm 0.00 in0.0 mm 0.00 in0.0 mm
07:35 AM 84.8°F29.3°C 36.5°F2.5°C 18% Calm Calm -- 29.99 in1015.6 mb 0.00 in0.0 mm 0.00 in0.0 mm 0.00 in0.0 mm
07:40 AM 85.7°F29.8°C 37.2°F2.9°C 18% Calm Calm -- 29.99 in1015.6 mb 0.00 in0.0 mm 0.00 in0.0 mm 0.00 in0.0 mm
07:45 AM 86.7°F30.4°C 38.0°F3.3°C 18% Calm Calm 3.0 mph4.8 kmh 29.99 in1015.6 mb 0.00 in0.0 mm 0.00 in0.0 mm 0.00 in0.0 mm
07:50 AM 87.6°F30.9°C 37.3°F2.9°C 17% Calm Calm 4.0 mph6.4 kmh 29.99 in1015.6 mb 0.00 in0.0 mm 0.00 in0.0 mm 0.00 in0.0 mm
07:55 AM 88.5°F31.4°C 36.5°F2.5°C 16% Calm Calm 2.0 mph3.2 kmh 29.99 in1015.6 mb 0.00 in0.0 mm 0.00 in0.0 mm 0.00 in0.0 mm
08:00 AM 89.3°F31.8°C 35.5°F1.9°C 15% Calm Calm 1.0 mph1.6 kmh 29.99 in1015.6 mb 0.00 in0.0 mm 0.00 in0.0 mm 0.00 in0.0 mm
08:05 AM 90.0°F32.2°C 37.7°F3.2°C 16% Calm Calm 3.0 mph4.8 kmh 29.99 in1015.6 mb 0.00 in0.0 mm 0.00 in0.0 mm 0.00 in0.0 mm
08:10 AM 90.5°F32.5°C 36.5°F2.5°C 15% Calm Calm 4.0 mph6.4 kmh 29.99 in1015.6 mb 0.00 in0.0 mm 0.00 in0.0 mm 0.00 in0.0 mm
08:15 AM 90.9°F32.7°C 36.8°F2.7°C 15% 1.0 mph SSE1.6 kmh SSE 4.0 mph6.4 kmh 29.99 in1015.6 mb 0.00 in0.0 mm 0.00 in0.0 mm 0.00 in0.0 mm
08:20 AM 91.2°F32.9°C 37.0°F2.8°C 15% 4.0 mph SW6.4 kmh SW 5.0 mph8.0 kmh 29.99 in1015.6 mb 0.00 in0.0 mm 0.00 in0.0 mm 0.00 in0.0 mm
08:25 AM 91.1°F32.8°C 36.9°F2.7°C 15% 1.0 mph WSW1.6 kmh WSW 6.0 mph9.7 kmh 29.99 in1015.6 mb 0.00 in0.0 mm 0.00 in0.0 mm 0.00 in0.0 mm
08:30 AM 91.0°F32.8°C 36.9°F2.7°C 15% 4.0 mph SW6.4 kmh SW 7.0 mph11.3 kmh 29.99 in1015.6 mb 0.00 in0.0 mm 0.00 in0.0 mm 0.00 in0.0 mm
08:35 AM 91.5°F33.1°C 35.5°F1.9°C 14% 4.0 mph SSW6.4 kmh SSW 5.0 mph8.0 kmh 29.99 in1015.6 mb 0.00 in0.0 mm 0.00 in0.0 mm 0.00 in0.0 mm
08:40 AM 91.6°F33.1°C 35.6°F2.0°C 14% 6.0 mph SSW9.7 kmh SSW 7.0 mph11.3 kmh 29.99 in1015.6 mb 0.00 in0.0 mm 0.00 in0.0 mm 0.00 in0.0 mm
08:45 AM 91.6°F33.1°C 35.6°F2.0°C 14% 4.0 mph WSW6.4 kmh WSW 8.0 mph12.9 kmh 29.99 in1015.6 mb 0.00 in0.0 mm 0.00 in0.0 mm 0.00 in0.0 mm
08:50 AM 91.5°F33.1°C 33.6°F0.9°C 13% 4.0 mph W6.4 kmh W 8.0 mph12.9 kmh 29.99 in1015.6 mb 0.00 in0.0 mm 0.00 in0.0 mm 0.00 in0.0 mm
08:55 AM 91.4°F33.0°C 31.6°F-0.2°C 12% 1.0 mph 1.6 kmh 9.0 mph14.5 kmh 29.99 in1015.6 mb 0.00 in0.0 mm 0.00 in0.0 mm 0.00 in0.0 mm
09:00 AM 91.3°F32.9°C 29.4°F-1.4°C 11% 7.0 mph SW11.3 kmh SW 7.0 mph11.3 kmh 29.99 in1015.6 mb 0.00 in0.0 mm 0.00 in0.0 mm 0.00 in0.0 mm
09:05 AM 91.5°F33.1°C 29.5°F-1.4°C 11% 2.0 mph WSW3.2 kmh WSW 7.0 mph11.3 kmh 29.99 in1015.6 mb 0.00 in0.0 mm 0.00 in0.0 mm 0.00 in0.0 mm
09:10 AM 91.8°F33.2°C 29.7°F-1.3°C 11% 5.0 mph SW8.0 kmh SW 8.0 mph12.9 kmh 29.99 in1015.6 mb 0.00 in0.0 mm 0.00 in0.0 mm 0.00 in0.0 mm
09:15 AM 92.3°F33.5°C 27.8°F-2.3°C 10% 7.0 mph WSW11.3 kmh WSW 8.0 mph12.9 kmh 29.99 in1015.6 mb 0.00 in0.0 mm 0.00 in0.0 mm 0.00 in0.0 mm
09:20 AM 92.3°F33.5°C 30.1°F-1.1°C 11% 4.0 mph WSW6.4 kmh WSW 7.0 mph11.3 kmh 29.99 in1015.6 mb 0.00 in0.0 mm 0.00 in0.0 mm 0.00 in0.0 mm
09:25 AM 92.3°F33.5°C 30.1°F-1.1°C 11% 7.0 mph WSW11.3 kmh WSW 8.0 mph12.9 kmh 29.99 in1015.6 mb 0.00 in0.0 mm 0.00 in0.0 mm 0.00 in0.0 mm
09:30 AM 92.2°F33.4°C 30.0°F-1.1°C 11% Calm Calm 8.0 mph12.9 kmh 29.99 in1015.6 mb 0.00 in0.0 mm 0.00 in0.0 mm 0.00 in0.0 mm
09:35 AM 92.5°F33.6°C 27.9°F-2.3°C 10% 3.0 mph WSW4.8 kmh WSW 8.0 mph12.9 kmh 29.99 in1015.6 mb 0.00 in0.0 mm 0.00 in0.0 mm 0.00 in0.0 mm
09:40 AM 92.7°F33.7°C 28.1°F-2.2°C 10% 3.0 mph W4.8 kmh W 8.0 mph12.9 kmh 29.99 in1015.6 mb 0.00 in0.0 mm 0.00 in0.0 mm 0.00 in0.0 mm
09:45 AM 93.3°F34.1°C 28.5°F-1.9°C 10% 4.0 mph SSE6.4 kmh SSE 6.0 mph9.7 kmh 29.99 in1015.6 mb 0.00 in0.0 mm 0.00 in0.0 mm 0.00 in0.0 mm
09:50 AM 93.8°F34.3°C 26.4°F-3.1°C 9% 4.0 mph WSW6.4 kmh WSW 7.0 mph11.3 kmh 29.98 in1015.2 mb 0.00 in0.0 mm 0.00 in0.0 mm 0.00 in0.0 mm
09:55 AM 93.7°F34.3°C 26.3°F-3.2°C 9% 4.0 mph W6.4 kmh W 8.0 mph12.9 kmh 29.98 in1015.2 mb 0.00 in0.0 mm 0.00 in0.0 mm 0.00 in0.0 mm
10:00 AM 93.5°F34.2°C 28.7°F-1.8°C 10% 2.0 mph SW3.2 kmh SW 7.0 mph11.3 kmh 29.99 in1015.6 mb 0.00 in0.0 mm 0.00 in0.0 mm 0.00 in0.0 mm
10:05 AM 93.8°F34.3°C 28.9°F-1.7°C 10% Calm Calm 8.0 mph12.9 kmh 29.99 in1015.6 mb 0.00 in0.0 mm 0.00 in0.0 mm 0.00 in0.0 mm
10:10 AM 94.0°F34.4°C 26.5°F-3.1°C 9% 1.0 mph SW1.6 kmh SW 5.0 mph8.0 kmh 29.99 in1015.6 mb 0.00 in0.0 mm 0.00 in0.0 mm 0.00 in0.0 mm
10:15 AM 94.2°F34.6°C 26.7°F-2.9°C 9% 3.0 mph WNW4.8 kmh WNW 10.0 mph16.1 kmh 29.99 in1015.6 mb 0.00 in0.0 mm 0.00 in0.0 mm 0.00 in0.0 mm
10:20 AM 93.8°F34.3°C 26.4°F-3.1°C 9% 7.0 mph SW11.3 kmh SW 9.0 mph14.5 kmh 29.98 in1015.2 mb 0.00 in0.0 mm 0.00 in0.0 mm 0.00 in0.0 mm
10:25 AM 94.2°F34.6°C 26.7°F-2.9°C 9% Calm Calm 7.0 mph11.3 kmh 29.98 in1015.2 mb 0.00 in0.0 mm 0.00 in0.0 mm 0.00 in0.0 mm
10:30 AM 94.3°F34.6°C 26.7°F-2.9°C 9% 1.0 mph WSW1.6 kmh WSW 11.0 mph17.7 kmh 29.99 in1015.6 mb 0.00 in0.0 mm 0.00 in0.0 mm 0.00 in0.0 mm
10:35 AM 95.1°F35.1°C 27.3°F-2.6°C 9% 6.0 mph SW9.7 kmh SW 11.0 mph17.7 kmh 29.99 in1015.6 mb 0.00 in0.0 mm 0.00 in0.0 mm 0.00 in0.0 mm
10:40 AM 95.3°F35.2°C 27.5°F-2.5°C 9% Calm Calm 7.0 mph11.3 kmh 29.98 in1015.2 mb 0.00 in0.0 mm 0.00 in0.0 mm 0.00 in0.0 mm
10:45 AM 95.4°F35.2°C 27.6°F-2.4°C 9% 7.0 mph WSW11.3 kmh WSW 8.0 mph12.9 kmh 29.98 in1015.2 mb 0.00 in0.0 mm 0.00 in0.0 mm 0.00 in0.0 mm
10:50 AM 95.8°F35.4°C 30.4°F-0.9°C 10% 3.0 mph SW4.8 kmh SW 6.0 mph9.7 kmh 29.98 in1015.2 mb 0.00 in0.0 mm 0.00 in0.0 mm 0.00 in0.0 mm
10:55 AM 96.4°F35.8°C 28.3°F-2.1°C 9% 4.0 mph W6.4 kmh W 4.0 mph6.4 kmh 29.98 in1015.2 mb 0.00 in0.0 mm 0.00 in0.0 mm 0.00 in0.0 mm
11:00 AM 96.4°F35.8°C 30.9°F-0.6°C 10% 5.0 mph W8.0 kmh W 8.0 mph12.9 kmh 29.98 in1015.2 mb 0.00 in0.0 mm 0.00 in0.0 mm 0.00 in0.0 mm
11:05 AM 96.4°F35.8°C 30.9°F-0.6°C 10% 2.0 mph NNW3.2 kmh NNW 6.0 mph9.7 kmh 29.98 in1015.2 mb 0.00 in0.0 mm 0.00 in0.0 mm 0.00 in0.0 mm
11:10 AM 96.4°F35.8°C 30.9°F-0.6°C 10% 2.0 mph W3.2 kmh W 10.0 mph16.1 kmh 29.98 in1015.2 mb 0.00 in0.0 mm 0.00 in0.0 mm 0.00 in0.0 mm
11:15 AM 96.1°F35.6°C 30.7°F-0.7°C 10% 3.0 mph WNW4.8 kmh WNW 8.0 mph12.9 kmh 29.98 in1015.2 mb 0.00 in0.0 mm 0.00 in0.0 mm 0.00 in0.0 mm
11:20 AM 96.1°F35.6°C 33.0°F0.6°C 11% 3.0 mph WSW4.8 kmh WSW 6.0 mph9.7 kmh 29.98 in1015.2 mb 0.00 in0.0 mm 0.00 in0.0 mm 0.00 in0.0 mm
11:25 AM 96.2°F35.7°C 33.1°F0.6°C 11% 4.0 mph NW6.4 kmh NW 10.0 mph16.1 kmh 29.98 in1015.2 mb 0.00 in0.0 mm 0.00 in0.0 mm 0.00 in0.0 mm
11:30 AM 96.4°F35.8°C 33.2°F0.7°C 11% 3.0 mph SW4.8 kmh SW 9.0 mph14.5 kmh 29.98 in1015.2 mb 0.00 in0.0 mm 0.00 in0.0 mm 0.00 in0.0 mm
11:35 AM 96.8°F36.0°C 33.5°F0.8°C 11% 1.0 mph SW1.6 kmh SW 8.0 mph12.9 kmh 29.98 in1015.2 mb 0.00 in0.0 mm 0.00 in0.0 mm 0.00 in0.0 mm
11:40 AM 97.6°F36.4°C 34.2°F1.2°C 11% 3.0 mph SW4.8 kmh SW 9.0 mph14.5 kmh 29.98 in1015.2 mb 0.00 in0.0 mm 0.00 in0.0 mm 0.00 in0.0 mm
11:45 AM 98.4°F36.9°C 34.8°F1.6°C 11% 6.0 mph SW9.7 kmh SW 10.0 mph16.1 kmh 29.98 in1015.2 mb 0.00 in0.0 mm 0.00 in0.0 mm 0.00 in0.0 mm
11:50 AM 98.5°F36.9°C 37.0°F2.8°C 12% 3.0 mph S4.8 kmh S 10.0 mph16.1 kmh 29.98 in1015.2 mb 0.00 in0.0 mm 0.00 in0.0 mm 0.00 in0.0 mm
11:55 AM 98.5°F36.9°C 37.0°F2.8°C 12% 2.0 mph NNE3.2 kmh NNE 7.0 mph11.3 kmh 29.98 in1015.2 mb 0.00 in0.0 mm 0.00 in0.0 mm 0.00 in0.0 mm
12:00 PM 99.2°F37.3°C 37.6°F3.1°C 12% 6.0 mph WSW9.7 kmh WSW 6.0 mph9.7 kmh 29.97 in1014.9 mb 0.00 in0.0 mm 0.00 in0.0 mm 0.00 in0.0 mm
12:05 PM 99.5°F37.5°C 35.6°F2.0°C 11% 2.0 mph WSW3.2 kmh WSW 8.0 mph12.9 kmh 29.97 in1014.9 mb 0.00 in0.0 mm 0.00 in0.0 mm 0.00 in0.0 mm
12:10 PM 100.0°F37.8°C 36.0°F2.2°C 11% 7.0 mph SSW11.3 kmh SSW 14.0 mph22.5 kmh 29.97 in1014.9 mb 0.00 in0.0 mm 0.00 in0.0 mm 0.00 in0.0 mm
12:15 PM 100.0°F37.8°C 36.0°F2.2°C 11% 3.0 mph W4.8 kmh W 14.0 mph22.5 kmh 29.97 in1014.9 mb 0.00 in0.0 mm 0.00 in0.0 mm 0.00 in0.0 mm
12:20 PM 99.4°F37.4°C 35.5°F1.9°C 11% 6.0 mph WSW9.7 kmh WSW 8.0 mph12.9 kmh 29.97 in1014.9 mb 0.00 in0.0 mm 0.00 in0.0 mm 0.00 in0.0 mm
12:25 PM 99.0°F37.2°C 35.2°F1.8°C 11% 3.0 mph SW4.8 kmh SW 9.0 mph14.5 kmh 29.97 in1014.9 mb 0.00 in0.0 mm 0.00 in0.0 mm 0.00 in0.0 mm
12:30 PM 99.3°F37.4°C 35.4°F1.9°C 11% 3.0 mph SSE4.8 kmh SSE 10.0 mph16.1 kmh 29.97 in1014.9 mb 0.00 in0.0 mm 0.00 in0.0 mm 0.00 in0.0 mm
12:35 PM 100.2°F37.9°C 36.1°F2.3°C 11% 7.0 mph SW11.3 kmh SW 10.0 mph16.1 kmh 29.96 in1014.6 mb 0.00 in0.0 mm 0.00 in0.0 mm 0.00 in0.0 mm
12:40 PM 100.6°F38.1°C 34.0°F1.1°C 10% 4.0 mph SSW6.4 kmh SSW 10.0 mph16.1 kmh 29.96 in1014.6 mb 0.00 in0.0 mm 0.00 in0.0 mm 0.00 in0.0 mm
12:45 PM 101.0°F38.3°C 34.3°F1.3°C 10% 1.0 mph SSE1.6 kmh SSE 7.0 mph11.3 kmh 29.97 in1014.9 mb 0.00 in0.0 mm 0.00 in0.0 mm 0.00 in0.0 mm
12:50 PM 101.7°F38.7°C 34.9°F1.6°C 10% 2.0 mph S3.2 kmh S 9.0 mph14.5 kmh 29.96 in1014.6 mb 0.00 in0.0 mm 0.00 in0.0 mm 0.00 in0.0 mm
12:55 PM 102.0°F38.9°C 35.1°F1.7°C 10% 6.0 mph SW9.7 kmh SW 14.0 mph22.5 kmh 29.96 in1014.6 mb 0.00 in0.0 mm 0.00 in0.0 mm 0.00 in0.0 mm
01:00 PM 101.6°F38.7°C 34.8°F1.6°C 10% 6.0 mph S9.7 kmh S 15.0 mph24.1 kmh 29.96 in1014.6 mb 0.00 in0.0 mm 0.00 in0.0 mm 0.00 in0.0 mm
01:05 PM 101.8°F38.8°C 34.9°F1.6°C 10% 2.0 mph SSE3.2 kmh SSE 6.0 mph9.7 kmh 29.96 in1014.6 mb 0.00 in0.0 mm 0.00 in0.0 mm 0.00 in0.0 mm
01:10 PM 101.7°F38.7°C 34.9°F1.6°C 10% 3.0 mph SW4.8 kmh SW 10.0 mph16.1 kmh 29.96 in1014.6 mb 0.00 in0.0 mm 0.00 in0.0 mm 0.00 in0.0 mm
01:15 PM 101.9°F38.8°C 35.0°F1.7°C 10% 5.0 mph SSW8.0 kmh SSW 12.0 mph19.3 kmh 29.96 in1014.6 mb 0.00 in0.0 mm 0.00 in0.0 mm 0.00 in0.0 mm
01:20 PM 102.2°F39.0°C 32.6°F0.3°C 9% 7.0 mph W11.3 kmh W 13.0 mph20.9 kmh 29.96 in1014.6 mb 0.00 in0.0 mm 0.00 in0.0 mm 0.00 in0.0 mm
01:25 PM 102.1°F38.9°C 35.2°F1.8°C 10% 4.0 mph SE6.4 kmh SE 10.0 mph16.1 kmh 29.96 in1014.6 mb 0.00 in0.0 mm 0.00 in0.0 mm 0.00 in0.0 mm
01:30 PM 102.2°F39.0°C 32.6°F0.3°C 9% 1.0 mph SSE1.6 kmh SSE 11.0 mph17.7 kmh 29.95 in1014.2 mb 0.00 in0.0 mm 0.00 in0.0 mm 0.00 in0.0 mm
01:35 PM 102.6°F39.2°C 32.9°F0.5°C 9% 4.0 mph WNW6.4 kmh WNW 7.0 mph11.3 kmh 29.95 in1014.2 mb 0.00 in0.0 mm 0.00 in0.0 mm 0.00 in0.0 mm
01:40 PM 102.8°F39.3°C 33.0°F0.6°C 9% 2.0 mph SSW3.2 kmh SSW 12.0 mph19.3 kmh 29.95 in1014.2 mb 0.00 in0.0 mm 0.00 in0.0 mm 0.00 in0.0 mm
01:45 PM 103.4°F39.7°C 33.5°F0.8°C 9% 3.0 mph S4.8 kmh S 10.0 mph16.1 kmh 29.95 in1014.2 mb 0.00 in0.0 mm 0.00 in0.0 mm 0.00 in0.0 mm
01:50 PM 103.3°F39.6°C 33.4°F0.8°C 9% 3.0 mph SW4.8 kmh SW 9.0 mph14.5 kmh 29.95 in1014.2 mb 0.00 in0.0 mm 0.00 in0.0 mm 0.00 in0.0 mm
01:55 PM 103.4°F39.7°C 33.5°F0.8°C 9% 8.0 mph SW12.9 kmh SW 9.0 mph14.5 kmh 29.95 in1014.2 mb 0.00 in0.0 mm 0.00 in0.0 mm 0.00 in0.0 mm
02:00 PM 103.3°F39.6°C 33.4°F0.8°C 9% 4.0 mph SSW6.4 kmh SSW 10.0 mph16.1 kmh 29.95 in1014.2 mb 0.00 in0.0 mm 0.00 in0.0 mm 0.00 in0.0 mm
02:05 PM 102.8°F39.3°C 33.0°F0.6°C 9% 9.0 mph W14.5 kmh W 11.0 mph17.7 kmh 29.94 in1013.9 mb 0.00 in0.0 mm 0.00 in0.0 mm 0.00 in0.0 mm
02:10 PM 101.9°F38.8°C 32.4°F0.2°C 9% 7.0 mph WSW11.3 kmh WSW 11.0 mph17.7 kmh 29.94 in1013.9 mb 0.00 in0.0 mm 0.00 in0.0 mm 0.00 in0.0 mm
02:15 PM 101.5°F38.6°C 32.1°F0.1°C 9% 4.0 mph NNW6.4 kmh NNW 12.0 mph19.3 kmh 29.94 in1013.9 mb 0.00 in0.0 mm 0.00 in0.0 mm 0.00 in0.0 mm
02:20 PM 101.2°F38.4°C 31.9°F-0.1°C 9% 9.0 mph SW14.5 kmh SW 13.0 mph20.9 kmh 29.94 in1013.9 mb 0.00 in0.0 mm 0.00 in0.0 mm 0.00 in0.0 mm
02:25 PM 101.3°F38.5°C 34.6°F1.4°C 10% 4.0 mph WSW6.4 kmh WSW 13.0 mph20.9 kmh 29.94 in1013.9 mb 0.00 in0.0 mm 0.00 in0.0 mm 0.00 in0.0 mm
02:30 PM 101.4°F38.6°C 32.0°F0.0°C 9% 4.0 mph SW6.4 kmh SW 16.0 mph25.7 kmh 29.94 in1013.9 mb 0.00 in0.0 mm 0.00 in0.0 mm 0.00 in0.0 mm
02:35 PM 101.3°F38.5°C 34.6°F1.4°C 10% 2.0 mph SW3.2 kmh SW 10.0 mph16.1 kmh 29.94 in1013.9 mb 0.00 in0.0 mm 0.00 in0.0 mm 0.00 in0.0 mm
02:40 PM 101.4°F38.6°C 34.6°F1.4°C 10% 8.0 mph W12.9 kmh W 15.0 mph24.1 kmh 29.93 in1013.5 mb 0.00 in0.0 mm 0.00 in0.0 mm 0.00 in0.0 mm
02:45 PM 101.3°F38.5°C 31.9°F-0.1°C 9% 4.0 mph WSW6.4 kmh WSW 12.0 mph19.3 kmh 29.93 in1013.5 mb 0.00 in0.0 mm 0.00 in0.0 mm 0.00 in0.0 mm
02:50 PM 101.6°F38.7°C 32.2°F0.1°C 9% 5.0 mph SW8.0 kmh SW 13.0 mph20.9 kmh 29.93 in1013.5 mb 0.00 in0.0 mm 0.00 in0.0 mm 0.00 in0.0 mm
02:55 PM 102.0°F38.9°C 32.5°F0.3°C 9% 5.0 mph SW8.0 kmh SW 11.0 mph17.7 kmh 29.93 in1013.5 mb 0.00 in0.0 mm 0.00 in0.0 mm 0.00 in0.0 mm
03:00 PM 102.7°F39.3°C 33.0°F0.6°C 9% 8.0 mph SW12.9 kmh SW 9.0 mph14.5 kmh 29.93 in1013.5 mb 0.00 in0.0 mm 0.00 in0.0 mm 0.00 in0.0 mm
03:05 PM 102.8°F39.3°C 33.0°F0.6°C 9% 4.0 mph WNW6.4 kmh WNW 11.0 mph17.7 kmh 29.93 in1013.5 mb 0.00 in0.0 mm 0.00 in0.0 mm 0.00 in0.0 mm
03:10 PM 102.4°F39.1°C 32.7°F0.4°C 9% 7.0 mph WSW11.3 kmh WSW 20.0 mph32.2 kmh 29.92 in1013.2 mb 0.00 in0.0 mm 0.00 in0.0 mm 0.00 in0.0 mm
03:15 PM 102.4°F39.1°C 32.7°F0.4°C 9% 3.0 mph NW4.8 kmh NW 20.0 mph32.2 kmh 29.92 in1013.2 mb 0.00 in0.0 mm 0.00 in0.0 mm 0.00 in0.0 mm
03:20 PM 102.4°F39.1°C 32.7°F0.4°C 9% 5.0 mph SW8.0 kmh SW 8.0 mph12.9 kmh 29.92 in1013.2 mb 0.00 in0.0 mm 0.00 in0.0 mm 0.00 in0.0 mm
03:25 PM 102.7°F39.3°C 33.0°F0.6°C 9% 7.0 mph WSW11.3 kmh WSW 10.0 mph16.1 kmh 29.92 in1013.2 mb 0.00 in0.0 mm 0.00 in0.0 mm 0.00 in0.0 mm
03:30 PM 102.4°F39.1°C 32.7°F0.4°C 9% 2.0 mph W3.2 kmh W 11.0 mph17.7 kmh 29.92 in1013.2 mb 0.00 in0.0 mm 0.00 in0.0 mm 0.00 in0.0 mm
03:35 PM 102.0°F38.9°C 32.5°F0.3°C 9% 7.0 mph SW11.3 kmh SW 10.0 mph16.1 kmh 29.92 in1013.2 mb 0.00 in0.0 mm 0.00 in0.0 mm 0.00 in0.0 mm
03:40 PM 102.1°F38.9°C 32.5°F0.3°C 9% 6.0 mph SW9.7 kmh SW 12.0 mph19.3 kmh 29.92 in1013.2 mb 0.00 in0.0 mm 0.00 in0.0 mm 0.00 in0.0 mm
03:45 PM 101.9°F38.8°C 32.4°F0.2°C 9% 5.0 mph W8.0 kmh W 8.0 mph12.9 kmh 29.92 in1013.2 mb 0.00 in0.0 mm 0.00 in0.0 mm 0.00 in0.0 mm
03:50 PM 101.6°F38.7°C 32.2°F0.1°C 9% 5.0 mph WSW8.0 kmh WSW 12.0 mph19.3 kmh 29.91 in1012.9 mb 0.00 in0.0 mm 0.00 in0.0 mm 0.00 in0.0 mm
03:55 PM 101.5°F38.6°C 32.1°F0.1°C 9% 4.0 mph WNW6.4 kmh WNW 11.0 mph17.7 kmh 29.91 in1012.9 mb 0.00 in0.0 mm 0.00 in0.0 mm 0.00 in0.0 mm
04:00 PM 101.8°F38.8°C 32.3°F0.2°C 9% 3.0 mph S4.8 kmh S 8.0 mph12.9 kmh 29.91 in1012.9 mb 0.00 in0.0 mm 0.00 in0.0 mm 0.00 in0.0 mm
04:05 PM 102.1°F38.9°C 29.6°F-1.3°C 8% 2.0 mph WSW3.2 kmh WSW 7.0 mph11.3 kmh 29.91 in1012.9 mb 0.00 in0.0 mm 0.00 in0.0 mm 0.00 in0.0 mm
04:10 PM 102.7°F39.3°C 30.1°F-1.1°C 8% 3.0 mph WNW4.8 kmh WNW 5.0 mph8.0 kmh 29.91 in1012.9 mb 0.00 in0.0 mm 0.00 in0.0 mm 0.00 in0.0 mm
04:15 PM 102.7°F39.3°C 30.1°F-1.1°C 8% 5.0 mph NW8.0 kmh NW 7.0 mph11.3 kmh 29.91 in1012.9 mb 0.00 in0.0 mm 0.00 in0.0 mm 0.00 in0.0 mm
04:20 PM 102.4°F39.1°C 29.8°F-1.2°C 8% 5.0 mph WNW8.0 kmh WNW 8.0 mph12.9 kmh 29.91 in1012.9 mb 0.00 in0.0 mm 0.00 in0.0 mm 0.00 in0.0 mm
04:25 PM 102.4°F39.1°C 29.8°F-1.2°C 8% 3.0 mph NE4.8 kmh NE 8.0 mph12.9 kmh 29.90 in1012.5 mb 0.00 in0.0 mm 0.00 in0.0 mm 0.00 in0.0 mm
04:30 PM 102.1°F38.9°C 29.6°F-1.3°C 8% Calm Calm 5.0 mph8.0 kmh 29.90 in1012.5 mb 0.00 in0.0 mm 0.00 in0.0 mm 0.00 in0.0 mm
04:35 PM 102.4°F39.1°C 29.8°F-1.2°C 8% 5.0 mph SW8.0 kmh SW 10.0 mph16.1 kmh 29.90 in1012.5 mb 0.00 in0.0 mm 0.00 in0.0 mm 0.00 in0.0 mm
04:40 PM 102.3°F39.1°C 29.8°F-1.2°C 8% 2.0 mph WSW3.2 kmh WSW 10.0 mph16.1 kmh 29.90 in1012.5 mb 0.00 in0.0 mm 0.00 in0.0 mm 0.00 in0.0 mm
04:45 PM 102.4°F39.1°C 29.8°F-1.2°C 8% 5.0 mph SW8.0 kmh SW 6.0 mph9.7 kmh 29.90 in1012.5 mb 0.00 in0.0 mm 0.00 in0.0 mm 0.00 in0.0 mm
04:50 PM 102.5°F39.2°C 29.9°F-1.2°C 8% 3.0 mph SW4.8 kmh SW 9.0 mph14.5 kmh 29.90 in1012.5 mb 0.00 in0.0 mm 0.00 in0.0 mm 0.00 in0.0 mm
04:55 PM 102.9°F39.4°C 30.2°F-1.0°C 8% 5.0 mph W8.0 kmh W 7.0 mph11.3 kmh 29.90 in1012.5 mb 0.00 in0.0 mm 0.00 in0.0 mm 0.00 in0.0 mm
05:00 PM 103.0°F39.4°C 30.3°F-0.9°C 8% Calm Calm 6.0 mph9.7 kmh 29.89 in1012.2 mb 0.00 in0.0 mm 0.00 in0.0 mm 0.00 in0.0 mm
05:05 PM 103.2°F39.6°C 30.4°F-0.9°C 8% 2.0 mph N3.2 kmh N 6.0 mph9.7 kmh 29.89 in1012.2 mb 0.00 in0.0 mm 0.00 in0.0 mm 0.00 in0.0 mm
05:10 PM 103.3°F39.6°C 30.5°F-0.8°C 8% Calm Calm 3.0 mph4.8 kmh 29.89 in1012.2 mb 0.00 in0.0 mm 0.00 in0.0 mm 0.00 in0.0 mm
05:15 PM 103.6°F39.8°C 30.7°F-0.7°C 8% 3.0 mph E4.8 kmh E 3.0 mph4.8 kmh 29.89 in1012.2 mb 0.00 in0.0 mm 0.00 in0.0 mm 0.00 in0.0 mm
05:20 PM 103.9°F39.9°C 27.7°F-2.4°C 7% 4.0 mph SSW6.4 kmh SSW 6.0 mph9.7 kmh 29.88 in1011.9 mb 0.00 in0.0 mm 0.00 in0.0 mm 0.00 in0.0 mm
05:25 PM 104.0°F40.0°C 27.7°F-2.4°C 7% 3.0 mph SW4.8 kmh SW 5.0 mph8.0 kmh 29.88 in1011.9 mb 0.00 in0.0 mm 0.00 in0.0 mm 0.00 in0.0 mm
05:30 PM 104.0°F40.0°C 27.7°F-2.4°C 7% 2.0 mph SW3.2 kmh SW 6.0 mph9.7 kmh 29.88 in1011.9 mb 0.00 in0.0 mm 0.00 in0.0 mm 0.00 in0.0 mm
05:35 PM 104.0°F40.0°C 27.7°F-2.4°C 7% 4.0 mph W6.4 kmh W 7.0 mph11.3 kmh 29.88 in1011.9 mb 0.00 in0.0 mm 0.00 in0.0 mm 0.00 in0.0 mm
05:40 PM 103.6°F39.8°C 27.4°F-2.6°C 7% 7.0 mph 11.3 kmh 9.0 mph14.5 kmh 29.88 in1011.9 mb 0.00 in0.0 mm 0.00 in0.0 mm 0.00 in0.0 mm
05:45 PM 102.9°F39.4°C 23.2°F-4.9°C 6% 4.0 mph NW6.4 kmh NW 11.0 mph17.7 kmh 29.88 in1011.9 mb 0.00 in0.0 mm 0.00 in0.0 mm 0.00 in0.0 mm
05:50 PM 102.5°F39.2°C 23.0°F-5.0°C 6% 3.0 mph SSW4.8 kmh SSW 7.0 mph11.3 kmh 29.87 in1011.5 mb 0.00 in0.0 mm 0.00 in0.0 mm 0.00 in0.0 mm
05:55 PM 102.4°F39.1°C 22.9°F-5.1°C 6% 2.0 mph WSW3.2 kmh WSW 6.0 mph9.7 kmh 29.87 in1011.5 mb 0.00 in0.0 mm 0.00 in0.0 mm 0.00 in0.0 mm
06:00 PM 102.3°F39.1°C 22.8°F-5.1°C 6% 3.0 mph SW4.8 kmh SW 8.0 mph12.9 kmh 29.87 in1011.5 mb 0.00 in0.0 mm 0.00 in0.0 mm 0.00 in0.0 mm
06:05 PM 102.2°F39.0°C 22.8°F-5.1°C 6% 4.0 mph SW6.4 kmh SW 7.0 mph11.3 kmh 29.87 in1011.5 mb 0.00 in0.0 mm 0.00 in0.0 mm 0.00 in0.0 mm
06:10 PM 102.0°F38.9°C 22.6°F-5.2°C 6% 2.0 mph SW3.2 kmh SW 8.0 mph12.9 kmh 29.87 in1011.5 mb 0.00 in0.0 mm 0.00 in0.0 mm 0.00 in0.0 mm
06:15 PM 102.0°F38.9°C 22.6°F-5.2°C 6% 4.0 mph SW6.4 kmh SW 8.0 mph12.9 kmh 29.87 in1011.5 mb 0.00 in0.0 mm 0.00 in0.0 mm 0.00 in0.0 mm
06:20 PM 101.9°F38.8°C 22.5°F-5.3°C 6% 3.0 mph W4.8 kmh W 6.0 mph9.7 kmh 29.87 in1011.5 mb 0.00 in0.0 mm 0.00 in0.0 mm 0.00 in0.0 mm
06:25 PM 101.8°F38.8°C 22.5°F-5.3°C 6% Calm Calm 4.0 mph6.4 kmh 29.87 in1011.5 mb 0.00 in0.0 mm 0.00 in0.0 mm 0.00 in0.0 mm
06:30 PM 101.9°F38.8°C 22.5°F-5.3°C 6% 1.0 mph W1.6 kmh W 2.0 mph3.2 kmh 29.87 in1011.5 mb 0.00 in0.0 mm 0.00 in0.0 mm 0.00 in0.0 mm
06:35 PM 101.8°F38.8°C 22.5°F-5.3°C 6% Calm Calm 1.0 mph1.6 kmh 29.87 in1011.5 mb 0.00 in0.0 mm 0.00 in0.0 mm 0.00 in0.0 mm
06:40 PM 101.9°F38.8°C 22.5°F-5.3°C 6% 3.0 mph WSW4.8 kmh WSW 5.0 mph8.0 kmh 29.87 in1011.5 mb 0.00 in0.0 mm 0.00 in0.0 mm 0.00 in0.0 mm
06:45 PM 101.8°F38.8°C 22.5°F-5.3°C 6% 1.0 mph WSW1.6 kmh WSW 4.0 mph6.4 kmh 29.87 in1011.5 mb 0.00 in0.0 mm 0.00 in0.0 mm 0.00 in0.0 mm
06:50 PM 101.7°F38.7°C 22.4°F-5.3°C 6% 2.0 mph WSW3.2 kmh WSW 4.0 mph6.4 kmh 29.87 in1011.5 mb 0.00 in0.0 mm 0.00 in0.0 mm 0.00 in0.0 mm
06:55 PM 101.5°F38.6°C 25.9°F-3.4°C 7% Calm Calm 4.0 mph6.4 kmh 29.86 in1011.2 mb 0.00 in0.0 mm 0.00 in0.0 mm 0.00 in0.0 mm
07:00 PM 101.4°F38.6°C 22.2°F-5.4°C 6% 1.0 mph WSW1.6 kmh WSW 3.0 mph4.8 kmh 29.86 in1011.2 mb 0.00 in0.0 mm 0.00 in0.0 mm 0.00 in0.0 mm
07:05 PM 101.1°F38.4°C 22.0°F-5.6°C 6% Calm Calm 3.0 mph4.8 kmh 29.86 in1011.2 mb 0.00 in0.0 mm 0.00 in0.0 mm 0.00 in0.0 mm
07:10 PM 100.8°F38.2°C 21.8°F-5.7°C 6% Calm Calm 2.0 mph3.2 kmh 29.86 in1011.2 mb 0.00 in0.0 mm 0.00 in0.0 mm 0.00 in0.0 mm
07:15 PM 100.7°F38.2°C 25.4°F-3.7°C 7% Calm Calm -- 29.86 in1011.2 mb 0.00 in0.0 mm 0.00 in0.0 mm 0.00 in0.0 mm
07:20 PM 100.4°F38.0°C 25.1°F-3.8°C 7% Calm Calm -- 29.86 in1011.2 mb 0.00 in0.0 mm 0.00 in0.0 mm 0.00 in0.0 mm
07:25 PM 100.2°F37.9°C 25.0°F-3.9°C 7% Calm Calm -- 29.86 in1011.2 mb 0.00 in0.0 mm 0.00 in0.0 mm 0.00 in0.0 mm
07:30 PM 99.8°F37.7°C 24.7°F-4.1°C 7% Calm Calm 2.0 mph3.2 kmh 29.86 in1011.2 mb 0.00 in0.0 mm 0.00 in0.0 mm 0.00 in0.0 mm
07:35 PM 99.3°F37.4°C 24.4°F-4.2°C 7% Calm Calm 1.0 mph1.6 kmh 29.86 in1011.2 mb 0.00 in0.0 mm 0.00 in0.0 mm 0.00 in0.0 mm
07:40 PM 98.7°F37.1°C 27.1°F-2.7°C 8% 2.0 mph W3.2 kmh W 3.0 mph4.8 kmh 29.86 in1011.2 mb 0.00 in0.0 mm 0.00 in0.0 mm 0.00 in0.0 mm
07:45 PM 97.9°F36.6°C 23.3°F-4.8°C 7% 2.0 mph W3.2 kmh W 3.0 mph4.8 kmh 29.86 in1011.2 mb 0.00 in0.0 mm 0.00 in0.0 mm 0.00 in0.0 mm
07:50 PM 97.3°F36.3°C 26.1°F-3.3°C 8% 2.0 mph WNW3.2 kmh WNW 2.0 mph3.2 kmh 29.86 in1011.2 mb 0.00 in0.0 mm 0.00 in0.0 mm 0.00 in0.0 mm
07:55 PM 96.8°F36.0°C 25.7°F-3.5°C 8% 1.0 mph WNW1.6 kmh WNW 2.0 mph3.2 kmh 29.87 in1011.5 mb 0.00 in0.0 mm 0.00 in0.0 mm 0.00 in0.0 mm
08:00 PM 96.2°F35.7°C 25.3°F-3.7°C 8% 1.0 mph WNW1.6 kmh WNW 2.0 mph3.2 kmh 29.87 in1011.5 mb 0.00 in0.0 mm 0.00 in0.0 mm 0.00 in0.0 mm
08:05 PM 95.6°F35.3°C 24.9°F-3.9°C 8% 1.0 mph WNW1.6 kmh WNW 2.0 mph3.2 kmh 29.87 in1011.5 mb 0.00 in0.0 mm 0.00 in0.0 mm 0.00 in0.0 mm
08:10 PM 94.8°F34.9°C 24.3°F-4.3°C 8% 1.0 mph NNW1.6 kmh NNW 3.0 mph4.8 kmh 29.87 in1011.5 mb 0.00 in0.0 mm 0.00 in0.0 mm 0.00 in0.0 mm
08:15 PM 94.1°F34.5°C 23.8°F-4.6°C 8% 1.0 mph NNW1.6 kmh NNW 3.0 mph4.8 kmh 29.87 in1011.5 mb 0.00 in0.0 mm 0.00 in0.0 mm 0.00 in0.0 mm
08:20 PM 93.5°F34.2°C 26.1°F-3.3°C 9% 1.0 mph NNW1.6 kmh NNW 3.0 mph4.8 kmh 29.87 in1011.5 mb 0.00 in0.0 mm 0.00 in0.0 mm 0.00 in0.0 mm
08:25 PM 92.9°F33.8°C 25.7°F-3.5°C 9% Calm Calm 3.0 mph4.8 kmh 29.87 in1011.5 mb 0.00 in0.0 mm 0.00 in0.0 mm 0.00 in0.0 mm
08:30 PM 92.3°F33.5°C 25.2°F-3.8°C 9% 1.0 mph NNW1.6 kmh NNW 1.0 mph1.6 kmh 29.87 in1011.5 mb 0.00 in0.0 mm 0.00 in0.0 mm 0.00 in0.0 mm
08:35 PM 91.7°F33.2°C 24.8°F-4.0°C 9% Calm Calm 2.0 mph3.2 kmh 29.87 in1011.5 mb 0.00 in0.0 mm 0.00 in0.0 mm 0.00 in0.0 mm
08:40 PM 91.1°F32.8°C 24.4°F-4.2°C 9% Calm Calm 2.0 mph3.2 kmh 29.88 in1011.9 mb 0.00 in0.0 mm 0.00 in0.0 mm 0.00 in0.0 mm
08:45 PM 90.5°F32.5°C 26.4°F-3.1°C 10% Calm Calm 2.0 mph3.2 kmh 29.88 in1011.9 mb 0.00 in0.0 mm 0.00 in0.0 mm 0.00 in0.0 mm
08:50 PM 90.0°F32.2°C 26.1°F-3.3°C 10% 3.0 mph NNW4.8 kmh NNW 3.0 mph4.8 kmh 29.88 in1011.9 mb 0.00 in0.0 mm 0.00 in0.0 mm 0.00 in0.0 mm
08:55 PM 89.5°F31.9°C 25.7°F-3.5°C 10% 1.0 mph NNW1.6 kmh NNW 3.0 mph4.8 kmh 29.88 in1011.9 mb 0.00 in0.0 mm 0.00 in0.0 mm 0.00 in0.0 mm
09:00 PM 89.1°F31.7°C 25.4°F-3.7°C 10% 2.0 mph NNW3.2 kmh NNW 2.0 mph3.2 kmh 29.88 in1011.9 mb 0.00 in0.0 mm 0.00 in0.0 mm 0.00 in0.0 mm
09:05 PM 88.7°F31.5°C 25.1°F-3.8°C 10% 2.0 mph N3.2 kmh N 3.0 mph4.8 kmh 29.88 in1011.9 mb 0.00 in0.0 mm 0.00 in0.0 mm 0.00 in0.0 mm
09:10 PM 88.3°F31.3°C 24.8°F-4.0°C 10% 1.0 mph N1.6 kmh N 3.0 mph4.8 kmh 29.89 in1012.2 mb 0.00 in0.0 mm 0.00 in0.0 mm 0.00 in0.0 mm
09:15 PM 88.0°F31.1°C 24.6°F-4.1°C 10% 2.0 mph N3.2 kmh N 3.0 mph4.8 kmh 29.89 in1012.2 mb 0.00 in0.0 mm 0.00 in0.0 mm 0.00 in0.0 mm
09:20 PM 87.6°F30.9°C 26.5°F-3.1°C 11% 3.0 mph N4.8 kmh N 4.0 mph6.4 kmh 29.89 in1012.2 mb 0.00 in0.0 mm 0.00 in0.0 mm 0.00 in0.0 mm
09:25 PM 87.2°F30.7°C 26.2°F-3.2°C 11% 3.0 mph N4.8 kmh N 3.0 mph4.8 kmh 29.89 in1012.2 mb 0.00 in0.0 mm 0.00 in0.0 mm 0.00 in0.0 mm
09:30 PM 86.8°F30.4°C 25.9°F-3.4°C 11% 2.0 mph N3.2 kmh N 4.0 mph6.4 kmh 29.90 in1012.5 mb 0.00 in0.0 mm 0.00 in0.0 mm 0.00 in0.0 mm
09:35 PM 86.5°F30.3°C 25.7°F-3.5°C 11% 1.0 mph N1.6 kmh N 3.0 mph4.8 kmh 29.89 in1012.2 mb 0.00 in0.0 mm 0.00 in0.0 mm 0.00 in0.0 mm
09:40 PM 86.3°F30.2°C 25.5°F-3.6°C 11% 2.0 mph N3.2 kmh N 4.0 mph6.4 kmh 29.89 in1012.2 mb 0.00 in0.0 mm 0.00 in0.0 mm 0.00 in0.0 mm
09:45 PM 86.1°F30.1°C 25.4°F-3.7°C 11% 2.0 mph N3.2 kmh N 3.0 mph4.8 kmh 29.89 in1012.2 mb 0.00 in0.0 mm 0.00 in0.0 mm 0.00 in0.0 mm
09:50 PM 85.9°F29.9°C 25.2°F-3.8°C 11% 2.0 mph N3.2 kmh N 3.0 mph4.8 kmh 29.89 in1012.2 mb 0.00 in0.0 mm 0.00 in0.0 mm 0.00 in0.0 mm
09:55 PM 85.7°F29.8°C 25.1°F-3.8°C 11% 1.0 mph N1.6 kmh N 3.0 mph4.8 kmh 29.89 in1012.2 mb 0.00 in0.0 mm 0.00 in0.0 mm 0.00 in0.0 mm
10:00 PM 85.5°F29.7°C 24.9°F-3.9°C 11% 2.0 mph N3.2 kmh N 3.0 mph4.8 kmh 29.90 in1012.5 mb 0.00 in0.0 mm 0.00 in0.0 mm 0.00 in0.0 mm
10:05 PM 85.1°F29.5°C 24.6°F-4.1°C 11% 2.0 mph 3.2 kmh 5.0 mph8.0 kmh 29.89 in1012.2 mb 0.00 in0.0 mm 0.00 in0.0 mm 0.00 in0.0 mm
10:10 PM 84.9°F29.4°C 24.5°F-4.2°C 11% 1.0 mph 1.6 kmh 4.0 mph6.4 kmh 29.90 in1012.5 mb 0.00 in0.0 mm 0.00 in0.0 mm 0.00 in0.0 mm
10:15 PM 84.7°F29.3°C 24.3°F-4.3°C 11% 1.0 mph 1.6 kmh 3.0 mph4.8 kmh 29.89 in1012.2 mb 0.00 in0.0 mm 0.00 in0.0 mm 0.00 in0.0 mm
10:20 PM 84.6°F29.2°C 24.2°F-4.3°C 11% 1.0 mph 1.6 kmh 3.0 mph4.8 kmh 29.89 in1012.2 mb 0.00 in0.0 mm 0.00 in0.0 mm 0.00 in0.0 mm
10:25 PM 84.4°F29.1°C 24.1°F-4.4°C 11% 1.0 mph 1.6 kmh 3.0 mph4.8 kmh 29.90 in1012.5 mb 0.00 in0.0 mm 0.00 in0.0 mm 0.00 in0.0 mm
10:30 PM 84.4°F29.1°C 24.1°F-4.4°C 11% 3.0 mph 4.8 kmh 6.0 mph9.7 kmh 29.90 in1012.5 mb 0.00 in0.0 mm 0.00 in0.0 mm 0.00 in0.0 mm
10:35 PM 84.1°F28.9°C 23.9°F-4.5°C 11% 2.0 mph 3.2 kmh 3.0 mph4.8 kmh 29.90 in1012.5 mb 0.00 in0.0 mm 0.00 in0.0 mm 0.00 in0.0 mm
10:40 PM 84.2°F29.0°C 23.9°F-4.5°C 11% 2.0 mph 3.2 kmh 3.0 mph4.8 kmh 29.90 in1012.5 mb 0.00 in0.0 mm 0.00 in0.0 mm 0.00 in0.0 mm
10:45 PM 84.2°F29.0°C 23.9°F-4.5°C 11% 3.0 mph 4.8 kmh 3.0 mph4.8 kmh 29.90 in1012.5 mb 0.00 in0.0 mm 0.00 in0.0 mm 0.00 in0.0 mm
10:50 PM 84.2°F29.0°C 23.9°F-4.5°C 11% 1.0 mph NNE1.6 kmh NNE 5.0 mph8.0 kmh 29.90 in1012.5 mb 0.00 in0.0 mm 0.00 in0.0 mm 0.00 in0.0 mm
10:55 PM 84.1°F28.9°C 23.9°F-4.5°C 11% 1.0 mph NNE1.6 kmh NNE 3.0 mph4.8 kmh 29.90 in1012.5 mb 0.00 in0.0 mm 0.00 in0.0 mm 0.00 in0.0 mm
11:00 PM 83.9°F28.8°C 21.5°F-5.8°C 10% 2.0 mph NNE3.2 kmh NNE 4.0 mph6.4 kmh 29.90 in1012.5 mb 0.00 in0.0 mm 0.00 in0.0 mm 0.00 in0.0 mm
11:05 PM 83.8°F28.8°C 21.4°F-5.9°C 10% 2.0 mph NNE3.2 kmh NNE 5.0 mph8.0 kmh 29.90 in1012.5 mb 0.00 in0.0 mm 0.00 in0.0 mm 0.00 in0.0 mm
11:10 PM 83.7°F28.7°C 21.3°F-5.9°C 10% Calm Calm 4.0 mph6.4 kmh 29.90 in1012.5 mb 0.00 in0.0 mm 0.00 in0.0 mm 0.00 in0.0 mm
11:15 PM 83.8°F28.8°C 21.4°F-5.9°C 10% 2.0 mph N3.2 kmh N 5.0 mph8.0 kmh 29.90 in1012.5 mb 0.00 in0.0 mm 0.00 in0.0 mm 0.00 in0.0 mm
11:20 PM 84.0°F28.9°C 21.5°F-5.8°C 10% 2.0 mph N3.2 kmh N 4.0 mph6.4 kmh 29.90 in1012.5 mb 0.00 in0.0 mm 0.00 in0.0 mm 0.00 in0.0 mm
11:25 PM 84.3°F29.1°C 21.8°F-5.7°C 10% 3.0 mph N4.8 kmh N 3.0 mph4.8 kmh 29.90 in1012.5 mb 0.00 in0.0 mm 0.00 in0.0 mm 0.00 in0.0 mm
11:30 PM 84.6°F29.2°C 22.0°F-5.6°C 10% 2.0 mph N3.2 kmh N 4.0 mph6.4 kmh 29.90 in1012.5 mb 0.00 in0.0 mm 0.00 in0.0 mm 0.00 in0.0 mm
11:35 PM 84.8°F29.3°C 22.1°F-5.5°C 10% 2.0 mph N3.2 kmh N 4.0 mph6.4 kmh 29.90 in1012.5 mb 0.00 in0.0 mm 0.00 in0.0 mm 0.00 in0.0 mm
11:40 PM 84.8°F29.3°C 22.1°F-5.5°C 10% 3.0 mph N4.8 kmh N 4.0 mph6.4 kmh 29.90 in1012.5 mb 0.00 in0.0 mm 0.00 in0.0 mm 0.00 in0.0 mm
11:45 PM 84.8°F29.3°C 22.1°F-5.5°C 10% 3.0 mph N4.8 kmh N 4.0 mph6.4 kmh 29.90 in1012.5 mb 0.00 in0.0 mm 0.00 in0.0 mm 0.00 in0.0 mm
11:50 PM 84.7°F29.3°C 22.1°F-5.5°C 10% 4.0 mph N6.4 kmh N 4.0 mph6.4 kmh 29.90 in1012.5 mb 0.00 in0.0 mm 0.00 in0.0 mm 0.00 in0.0 mm
11:55 PM 84.5°F29.2°C 21.9°F-5.6°C 10% 2.0 mph N3.2 kmh N 4.0 mph6.4 kmh 29.90 in1012.5 mb 0.00 in0.0 mm 0.00 in0.0 mm 0.00 in0.0 mm